Time;durP1;ratioP1;P1;durP2;ratioP2;P2;SDS_P1;SDS_P2;PMS_P1;PMS_P2;Temp;Humidity;BMP_temperature;BMP_pressure;BME280_temperature;BME280_humidity;BME280_pressure;Samples;Min_cycle;Max_cycle;Signal;HPM_P1;HPM_P2
2022/10/08 00:01:37;;;;;;;13.70;5.50;;;21.90;68.50;;;;;;214993;1295;23877;-49
2022/10/08 00:06:41;;;;;;;9.30;5.30;;;21.90;68.50;;;;;;215027;1293;24552;-45
2022/10/08 00:11:44;;;;;;;11.60;5.80;;;21.80;68.60;;;;;;215076;1300;26564;-51
2022/10/08 00:16:48;;;;;;;12.90;5.60;;;21.80;68.50;;;;;;214976;1294;23873;-47
2022/10/08 00:21:55;;;;;;;8.30;5.10;;;21.90;68.60;;;;;;214981;1300;23759;-47
2022/10/08 00:26:59;;;;;;;10.60;6.10;;;21.80;68.60;;;;;;215017;1282;24240;-48
2022/10/08 00:32:03;;;;;;;11.10;5.90;;;21.80;68.60;;;;;;214924;1294;23857;-46
2022/10/08 00:37:06;;;;;;;8.40;4.80;;;21.80;68.60;;;;;;215077;1292;23069;-50
2022/10/08 00:42:11;;;;;;;9.60;5.20;;;21.80;68.70;;;;;;215028;1293;22582;-48
2022/10/08 00:47:34;;;;;;;9.20;5.20;;;21.80;68.70;;;;;;215158;1285;25235;-48
2022/10/08 00:53:04;;;;;;;11.20;5.10;;;21.70;68.80;;;;;;215019;1285;22538;-50
2022/10/08 00:58:21;;;;;;;8.60;5.20;;;21.70;69.00;;;;;;215063;1300;22449;-48
2022/10/08 01:03:25;;;;;;;13.70;5.80;;;21.70;68.80;;;;;;219248;1275;67241;-57
2022/10/08 01:08:31;;;;;;;10.00;5.20;;;21.70;68.90;;;;;;214453;1284;26524;-59
2022/10/08 01:13:44;;;;;;;7.20;4.90;;;21.70;68.90;;;;;;214610;1276;22469;-59
2022/10/08 01:19:05;;;;;;;9.70;5.00;;;21.70;69.20;;;;;;214834;1292;25518;-60
2022/10/08 01:24:14;;;;;;;10.10;5.00;;;21.70;68.90;;;;;;214902;1295;23153;-59
2022/10/08 01:29:33;;;;;;;10.80;5.40;;;21.70;68.90;;;;;;214985;1284;22476;-59
2022/10/08 01:34:44;;;;;;;8.30;4.60;;;21.60;69.20;;;;;;214911;1284;22849;-57
2022/10/08 01:39:52;;;;;;;8.20;4.50;;;21.60;68.90;;;;;;214940;1284;22456;-59
2022/10/08 01:45:00;;;;;;;11.20;4.60;;;21.60;68.90;;;;;;214814;1295;22922;-60
2022/10/08 01:50:22;;;;;;;6.30;4.40;;;21.60;68.90;;;;;;214990;1289;22455;-60
2022/10/08 01:55:33;;;;;;;8.20;4.90;;;21.60;68.80;;;;;;215025;1282;24391;-58
2022/10/08 02:00:39;;;;;;;8.30;4.80;;;21.60;68.90;;;;;;214989;1279;25490;-58
2022/10/08 02:05:47;;;;;;;8.20;4.60;;;21.60;69.00;;;;;;215012;1291;23062;-60
2022/10/08 02:10:51;;;;;;;9.50;4.90;;;21.60;69.00;;;;;;215043;1292;25304;-62
2022/10/08 02:15:58;;;;;;;6.20;4.20;;;21.60;69.10;;;;;;215140;1282;24350;-57
2022/10/08 02:21:05;;;;;;;6.40;4.10;;;21.60;68.90;;;;;;215034;1277;24304;-62
2022/10/08 02:26:13;;;;;;;6.40;4.60;;;21.60;69.00;;;;;;214923;1286;24230;-60
2022/10/08 02:31:19;;;;;;;6.90;4.10;;;21.60;69.10;;;;;;214952;1288;22462;-58
2022/10/08 02:36:30;;;;;;;6.70;4.40;;;21.60;69.50;;;;;;215129;1300;25401;-60
2022/10/08 02:41:39;;;;;;;8.90;5.00;;;21.60;69.30;;;;;;215117;1281;22469;-61
2022/10/08 02:46:48;;;;;;;4.90;3.90;;;21.60;69.30;;;;;;215156;1294;24224;-58
2022/10/08 02:51:54;;;;;;;11.10;4.80;;;21.60;69.30;;;;;;214763;1285;22488;-58
2022/10/08 02:57:04;;;;;;;10.20;5.40;;;21.60;69.30;;;;;;214818;1285;22494;-58
2022/10/08 03:02:26;;;;;;;10.10;4.80;;;21.60;69.40;;;;;;214747;1291;24230;-60
2022/10/08 03:07:32;;;;;;;8.60;4.40;;;21.60;69.40;;;;;;215009;1284;22682;-60
2022/10/08 03:12:35;;;;;;;7.10;4.40;;;21.50;69.50;;;;;;215063;1286;24224;-59
2022/10/08 03:17:43;;;;;;;5.90;4.00;;;21.50;69.30;;;;;;215115;1284;22854;-61
2022/10/08 03:22:47;;;;;;;10.00;4.50;;;21.50;69.40;;;;;;215058;1281;25501;-58
2022/10/08 03:27:51;;;;;;;6.00;4.20;;;21.50;69.50;;;;;;215068;1276;24240;-60
2022/10/08 03:32:54;;;;;;;6.80;4.20;;;21.50;69.40;;;;;;214983;1285;22473;-60
2022/10/08 03:37:57;;;;;;;10.50;4.90;;;21.50;69.00;;;;;;214996;1280;22888;-59
2022/10/08 03:43:01;;;;;;;5.90;4.10;;;21.50;69.40;;;;;;215030;1294;22733;-63
2022/10/08 03:48:04;;;;;;;6.10;3.80;;;21.50;69.50;;;;;;214986;1300;25250;-58
2022/10/08 03:53:08;;;;;;;7.10;3.90;;;21.50;69.70;;;;;;214962;1291;23735;-61
2022/10/08 03:58:12;;;;;;;7.10;3.40;;;21.40;69.60;;;;;;215005;1286;24505;-61
2022/10/08 04:03:16;;;;;;;8.30;4.30;;;21.40;69.60;;;;;;214939;1293;23891;-58
2022/10/08 04:08:20;;;;;;;5.80;4.10;;;21.40;69.70;;;;;;215033;1297;25266;-59
2022/10/08 04:13:23;;;;;;;6.80;4.30;;;21.40;69.70;;;;;;214951;1292;24691;-59
2022/10/08 04:18:26;;;;;;;5.50;4.00;;;21.40;69.60;;;;;;214927;1294;22466;-59
2022/10/08 04:23:33;;;;;;;5.50;4.10;;;21.40;69.60;;;;;;215024;1291;24014;-63
2022/10/08 04:28:38;;;;;;;6.00;4.10;;;21.40;69.60;;;;;;215000;1286;22517;-59
2022/10/08 04:33:42;;;;;;;6.60;4.00;;;21.40;69.60;;;;;;214998;1280;24344;-62
2022/10/08 04:38:46;;;;;;;6.60;4.00;;;21.40;69.60;;;;;;215062;1284;22512;-60
2022/10/08 04:43:51;;;;;;;6.00;3.90;;;21.40;70.00;;;;;;215040;1300;25305;-60
2022/10/08 04:48:55;;;;;;;5.40;4.10;;;21.40;69.70;;;;;;215099;1297;22485;-58
2022/10/08 04:54:00;;;;;;;7.10;4.40;;;21.40;69.60;;;;;;215043;1294;22705;-57
2022/10/08 04:59:09;;;;;;;6.90;4.10;;;21.40;69.60;;;;;;214961;1288;24301;-63
2022/10/08 05:04:13;;;;;;;6.90;3.80;;;21.40;69.70;;;;;;214720;1295;23931;-61
2022/10/08 05:09:16;;;;;;;6.70;4.00;;;21.40;69.80;;;;;;214898;1281;24279;-58
2022/10/08 05:14:20;;;;;;;7.80;4.20;;;21.40;69.70;;;;;;215007;1294;22509;-61
2022/10/08 05:19:23;;;;;;;6.00;3.70;;;21.40;69.80;;;;;;215039;1297;22548;-60
2022/10/08 05:24:26;;;;;;;6.40;4.00;;;21.30;69.70;;;;;;214904;1281;22475;-60
2022/10/08 05:29:30;;;;;;;5.20;3.60;;;21.40;70.10;;;;;;214908;1285;24244;-60
2022/10/08 05:34:33;;;;;;;6.70;3.70;;;21.40;69.70;;;;;;214793;1300;22480;-60
2022/10/08 05:39:37;;;;;;;7.60;4.00;;;21.30;69.60;;;;;;214915;1286;24903;-59
2022/10/08 05:44:41;;;;;;;5.20;3.70;;;21.30;69.70;;;;;;214961;1281;24329;-64
2022/10/08 05:49:48;;;;;;;7.70;4.20;;;21.30;69.70;;;;;;214788;1300;24012;-60
2022/10/08 05:54:52;;;;;;;5.40;3.60;;;21.30;69.70;;;;;;214951;1284;23241;-60
2022/10/08 05:59:56;;;;;;;7.10;4.10;;;21.30;69.70;;;;;;215108;1299;22535;-60
2022/10/08 06:05:00;;;;;;;6.80;4.00;;;21.30;70.00;;;;;;215001;1283;25191;-62
2022/10/08 06:10:04;;;;;;;5.50;3.50;;;21.30;69.80;;;;;;214861;1282;200578;-62
2022/10/08 06:15:08;;;;;;;6.50;3.70;;;21.30;70.20;;;;;;214969;1288;24226;-60
2022/10/08 06:20:12;;;;;;;6.10;3.50;;;21.30;69.80;;;;;;215120;1297;25311;-59
2022/10/08 06:25:19;;;;;;;6.40;3.70;;;21.30;69.80;;;;;;214999;1292;25494;-60
2022/10/08 06:30:23;;;;;;;5.30;3.50;;;21.30;69.90;;;;;;215005;1280;24660;-60
2022/10/08 06:35:29;;;;;;;6.60;3.90;;;21.30;70.00;;;;;;215024;1277;25716;-59
2022/10/08 06:40:39;;;;;;;6.70;3.40;;;21.30;69.90;;;;;;214832;1286;25229;-59
2022/10/08 06:45:44;;;;;;;6.30;3.30;;;21.30;70.10;;;;;;214920;1297;22475;-59
2022/10/08 06:51:04;;;;;;;9.50;4.10;;;21.30;70.00;;;;;;214980;1288;22459;-62
2022/10/08 06:56:16;;;;;;;9.30;4.20;;;21.40;69.90;;;;;;215075;1288;22477;-60
2022/10/08 07:01:27;;;;;;;4.20;3.30;;;21.40;70.30;;;;;;215058;1282;25661;-62
2022/10/08 07:06:41;;;;;;;4.90;3.20;;;21.30;70.50;;;;;;214957;1292;22596;-61
2022/10/08 07:11:53;;;;;;;3.80;3.00;;;21.40;69.90;;;;;;215028;1285;22464;-60
2022/10/08 07:17:11;;;;;;;6.00;4.10;;;21.40;69.80;;;;;;215077;1279;24296;-60
2022/10/08 07:22:21;;;;;;;6.90;3.30;;;21.40;69.80;;;;;;215006;1300;23889;-60
2022/10/08 07:27:24;;;;;;;5.20;3.50;;;21.40;69.70;;;;;;215138;1281;25529;-61
2022/10/08 07:32:41;;;;;;;7.40;3.20;;;21.40;69.60;;;;;;214952;1295;24002;-60
2022/10/08 07:38:21;;;;;;;5.70;3.40;;;21.50;69.60;;;;;;215094;1292;22468;-58
2022/10/08 07:43:52;;;;;;;4.90;3.10;;;21.50;69.60;;;;;;214927;1284;23247;-60
2022/10/08 07:49:01;;;;;;;7.00;3.30;;;21.50;69.70;;;;;;215094;1284;22839;-61
2022/10/08 07:54:10;;;;;;;6.60;3.40;;;21.50;69.50;;;;;;214997;1282;22492;-56
2022/10/08 07:59:14;;;;;;;7.00;3.80;;;21.50;69.60;;;;;;214941;1281;22502;-61
2022/10/08 08:04:27;;;;;;;4.50;3.20;;;21.50;69.40;;;;;;214993;1280;22448;-62
2022/10/08 08:09:52;;;;;;;4.70;3.70;;;21.60;70.00;;;;;;214950;1276;24292;-60
2022/10/08 08:15:06;;;;;;;4.70;3.00;;;21.60;69.60;;;;;;215087;1300;22464;-61
2022/10/08 08:20:22;;;;;;;4.60;3.00;;;21.60;69.80;;;;;;214931;1275;24231;-61
2022/10/08 08:25:45;;;;;;;4.80;3.10;;;21.60;69.20;;;;;;214981;1281;25243;-59
2022/10/08 08:37:15;;;;;;;5.70;3.50;;;21.70;69.30;;;;;;214827;1300;25335;-59
2022/10/08 08:43:00;;;;;;;4.00;2.90;;;21.70;69.30;;;;;;214937;1285;22452;-61
2022/10/08 08:48:31;;;;;;;6.70;3.70;;;21.70;69.20;;;;;;215026;1296;24257;-61
2022/10/08 08:53:53;;;;;;;4.30;3.30;;;21.70;69.40;;;;;;214968;1281;24212;-61
2022/10/08 08:59:31;;;;;;;6.20;3.30;;;21.70;69.60;;;;;;214914;1293;22484;-60
2022/10/08 09:04:56;;;;;;;5.50;4.00;;;21.70;70.00;;;;;;214966;1295;24240;-59
2022/10/08 09:10:04;;;;;;;9.60;4.30;;;21.70;70.20;;;;;;215039;1284;22596;-59
2022/10/08 09:15:25;;;;;;;12.20;4.30;;;21.80;72.50;;;;;;214953;1287;24330;-60
2022/10/08 09:20:48;;;;;;;9.20;4.00;;;21.80;72.10;;;;;;214702;1274;22470;-60
2022/10/08 09:26:07;;;;;;;10.10;4.40;;;21.80;71.70;;;;;;214849;1277;24310;-59
2022/10/08 09:31:46;;;;;;;14.10;5.30;;;21.80;71.90;;;;;;214971;1300;22488;-62
2022/10/08 09:37:08;;;;;;;10.00;6.00;;;21.90;72.00;;;;;;215081;1281;22464;-61
2022/10/08 09:42:19;;;;;;;10.80;6.40;;;21.90;72.00;;;;;;214736;1295;25438;-59
2022/10/08 09:47:26;;;;;;;10.60;6.30;;;21.90;71.60;;;;;;214898;1300;23528;-58
2022/10/08 09:52:41;;;;;;;9.00;6.20;;;21.90;71.40;;;;;;215014;1285;22661;-60
2022/10/08 09:57:59;;;;;;;11.80;6.40;;;21.90;71.20;;;;;;215069;1284;22476;-59
2022/10/08 10:03:27;;;;;;;15.10;7.30;;;22.00;72.70;;;;;;215512;1293;22692;-54
2022/10/08 10:09:10;;;;;;;9.40;6.30;;;22.00;70.90;;;;;;214792;1300;24014;-53
2022/10/08 10:14:55;;;;;;;16.40;7.10;;;22.00;70.80;;;;;;214498;1286;23847;-59
2022/10/08 10:20:20;;;;;;;8.80;6.40;;;22.00;70.80;;;;;;214787;1300;25360;-57
2022/10/08 10:26:25;;;;;;;9.90;6.80;;;22.00;70.60;;;;;;214813;1300;22518;-60
2022/10/08 10:31:42;;;;;;;;;;;22.00;70.80;;;;;;214880;1291;22571;-59
2022/10/08 10:37:06;;;;;;;10.30;6.40;;;22.10;70.50;;;;;;214878;1300;23279;-59
2022/10/08 10:42:38;;;;;;;9.80;6.80;;;22.20;70.20;;;;;;214787;1281;22521;-59
2022/10/08 10:47:53;;;;;;;14.20;7.00;;;22.20;70.30;;;;;;214900;1282;24359;-56
2022/10/08 10:53:34;;;;;;;14.80;7.20;;;22.10;70.00;;;;;;214655;1274;22959;-54
2022/10/08 10:59:09;;;;;;;11.50;7.10;;;22.10;70.00;;;;;;215118;1294;25531;-61
2022/10/08 11:04:40;;;;;;;10.50;7.60;;;22.10;69.80;;;;;;214880;1285;22445;-59
2022/10/08 11:09:55;;;;;;;11.00;6.90;;;22.10;69.80;;;;;;214822;1281;22470;-61
2022/10/08 11:15:20;;;;;;;9.80;6.80;;;22.10;70.10;;;;;;214672;1300;26500;-62
2022/10/08 11:20:38;;;;;;;12.70;6.60;;;22.10;69.70;;;;;;214384;1300;22645;-61
2022/10/08 11:25:51;;;;;;;10.00;6.30;;;22.10;70.00;;;;;;214619;1291;23353;-60
2022/10/08 11:31:22;;;;;;;15.20;7.10;;;22.10;70.10;;;;;;214737;1300;25251;-58
2022/10/08 11:36:39;;;;;;;11.20;6.80;;;22.10;70.30;;;;;;214623;1291;25617;-61
2022/10/08 11:41:57;;;;;;;10.20;6.20;;;22.10;70.30;;;;;;214761;1289;22543;-59
2022/10/08 11:47:41;;;;;;;10.30;6.40;;;22.10;70.10;;;;;;214722;1300;24476;-57
2022/10/08 11:52:55;;;;;;;8.70;5.50;;;22.10;70.10;;;;;;214780;1286;22753;-59
2022/10/08 11:58:22;;;;;;;9.70;6.30;;;22.10;70.00;;;;;;214932;1288;25254;-58
2022/10/08 12:03:36;;;;;;;14.20;6.80;;;22.10;70.00;;;;;;214804;1291;22470;-61
2022/10/08 12:08:56;;;;;;;12.10;6.60;;;22.10;70.00;;;;;;215041;1297;22523;-57
2022/10/08 12:14:13;;;;;;;10.10;6.00;;;22.20;70.00;;;;;;214718;1300;25273;-59
2022/10/08 12:19:35;;;;;;;13.00;7.40;;;22.20;70.10;;;;;;214735;1288;25478;-59
2022/10/08 12:24:47;;;;;;;15.20;6.10;;;22.10;70.80;;;;;;214720;1290;24237;-61
2022/10/08 12:30:20;;;;;;;11.90;6.30;;;22.20;72.50;;;;;;214750;1284;25309;-60
2022/10/08 12:35:42;;;;;;;15.10;6.90;;;22.20;72.30;;;;;;214780;1273;23661;-58
2022/10/08 12:41:30;;;;;;;11.80;6.60;;;22.20;72.00;;;;;;214718;1291;25493;-64
2022/10/08 12:47:09;;;;;;;16.60;6.00;;;22.20;71.90;;;;;;214804;1295;25320;-60
2022/10/08 12:52:25;;;;;;;9.70;6.30;;;22.20;72.20;;;;;;214373;1300;24368;-63
2022/10/08 12:57:40;;;;;;;13.10;6.70;;;22.30;72.50;;;;;;214789;1286;22813;-61
2022/10/08 13:03:04;;;;;;;12.50;6.10;;;22.30;72.30;;;;;;214535;1300;22531;-60
2022/10/08 13:08:31;;;;;;;11.70;6.20;;;22.30;72.40;;;;;;214902;1288;22485;-62
2022/10/08 13:13:49;;;;;;;15.60;6.90;;;22.40;72.40;;;;;;215101;1293;22486;-61
2022/10/08 13:19:00;;;;;;;13.40;6.70;;;22.30;71.60;;;;;;214728;1292;22819;-58
2022/10/08 13:24:13;;;;;;;27.90;7.90;;;22.40;71.60;;;;;;214692;1288;24225;-61
2022/10/08 13:29:25;;;;;;;21.30;7.40;;;22.40;71.30;;;;;;214675;1294;24208;-63
2022/10/08 13:35:00;;;;;;;11.90;6.10;;;22.40;70.90;;;;;;214863;1292;24361;-61
2022/10/08 13:40:18;;;;;;;13.70;6.90;;;22.40;70.90;;;;;;215176;1297;24439;-57
2022/10/08 13:45:37;;;;;;;12.90;6.40;;;22.30;70.80;;;;;;214902;1288;22719;-59
2022/10/08 13:50:51;;;;;;;9.90;6.00;;;22.30;70.60;;;;;;214944;1288;24176;-61
2022/10/08 13:55:58;;;;;;;12.00;6.30;;;22.20;70.60;;;;;;214857;1292;22550;-60
2022/10/08 14:01:07;;;;;;;11.30;6.30;;;22.20;70.70;;;;;;214896;1289;24241;-59
2022/10/08 14:06:20;;;;;;;9.80;5.80;;;22.20;70.60;;;;;;214596;1295;22462;-57
2022/10/08 14:11:31;;;;;;;16.50;6.70;;;22.20;70.60;;;;;;214886;1283;24265;-61
2022/10/08 14:16:43;;;;;;;7.50;5.70;;;22.20;71.10;;;;;;214884;1287;25565;-59
2022/10/08 14:21:58;;;;;;;8.30;5.90;;;22.10;70.50;;;;;;214884;1290;22539;-62
2022/10/08 14:27:11;;;;;;;10.70;5.90;;;22.20;70.80;;;;;;215039;1300;22620;-57
2022/10/08 14:32:20;;;;;;;11.00;6.00;;;22.10;70.30;;;;;;214983;1288;22472;-62
2022/10/08 14:37:36;;;;;;;8.70;5.50;;;22.10;70.80;;;;;;214952;1295;22530;-61
2022/10/08 14:42:51;;;;;;;7.20;5.60;;;22.10;70.60;;;;;;214961;1282;22527;-59
2022/10/08 14:48:14;;;;;;;9.20;6.30;;;22.10;70.50;;;;;;214734;1300;22466;-59
2022/10/08 14:53:34;;;;;;;8.30;6.20;;;22.10;70.50;;;;;;215051;1300;22588;-60
2022/10/08 14:58:58;;;;;;;8.30;5.90;;;22.10;70.00;;;;;;214894;1292;22464;-60
2022/10/08 15:04:24;;;;;;;9.90;6.30;;;22.10;70.30;;;;;;214893;1300;22457;-61
2022/10/08 15:09:36;;;;;;;11.50;6.30;;;22.10;69.90;;;;;;215037;1296;23896;-63
2022/10/08 15:15:03;;;;;;;10.40;6.40;;;22.10;69.80;;;;;;215206;1283;24311;-60
2022/10/08 15:20:17;;;;;;;14.90;6.80;;;22.00;69.60;;;;;;214613;1283;22487;-60
2022/10/08 15:25:28;;;;;;;9.30;6.40;;;22.00;70.00;;;;;;214642;1283;22750;-60
2022/10/08 15:30:32;;;;;;;11.80;6.50;;;22.10;69.70;;;;;;214951;1298;22597;-60
2022/10/08 15:35:40;;;;;;;11.30;6.20;;;22.00;69.50;;;;;;214542;1300;25429;-60
2022/10/08 15:40:44;;;;;;;7.80;6.00;;;22.00;69.60;;;;;;214909;1288;22664;-60
2022/10/08 15:45:57;;;;;;;10.10;6.70;;;22.00;69.90;;;;;;214940;1286;25370;-60
2022/10/08 15:51:09;;;;;;;9.90;6.20;;;22.00;69.50;;;;;;214839;1300;22630;-60
2022/10/08 15:56:20;;;;;;;8.50;6.50;;;22.00;69.80;;;;;;215093;1282;22452;-59
2022/10/08 16:01:29;;;;;;;9.20;5.90;;;22.00;69.50;;;;;;215027;1300;25747;-59
2022/10/08 16:06:35;;;;;;;8.30;5.10;;;22.00;69.50;;;;;;215014;1286;25464;-60
2022/10/08 16:11:51;;;;;;;10.10;6.10;;;21.90;69.40;;;;;;215092;1281;24343;-60
2022/10/08 16:16:55;;;;;;;8.60;5.40;;;21.90;69.30;;;;;;214894;1280;25519;-60
2022/10/08 16:21:59;;;;;;;7.70;5.50;;;21.90;69.30;;;;;;215115;1284;24423;-60
2022/10/08 16:27:03;;;;;;;8.40;5.40;;;21.90;69.20;;;;;;215018;1280;22740;-61
2022/10/08 16:32:09;;;;;;;10.50;6.10;;;21.90;69.00;;;;;;215011;1297;22944;-59
2022/10/08 16:37:17;;;;;;;8.70;5.90;;;21.90;68.80;;;;;;215055;1288;24256;-60
2022/10/08 16:42:29;;;;;;;9.00;6.10;;;21.90;68.70;;;;;;215086;1288;22533;-61
2022/10/08 16:47:32;;;;;;;8.00;5.60;;;21.80;68.60;;;;;;215172;1291;22532;-60
2022/10/08 16:52:36;;;;;;;11.80;5.90;;;21.80;68.50;;;;;;215008;1286;23866;-60
2022/10/08 16:57:40;;;;;;;8.10;5.50;;;21.80;68.40;;;;;;215192;1283;26027;-60
2022/10/08 17:02:43;;;;;;;9.50;5.10;;;21.80;68.30;;;;;;215062;1280;23059;-59
2022/10/08 17:07:47;;;;;;;7.50;5.00;;;21.80;68.20;;;;;;215065;1300;26145;-59
2022/10/08 17:12:57;;;;;;;10.10;6.00;;;21.80;68.30;;;;;;215110;1285;22501;-59
2022/10/08 17:18:12;;;;;;;9.20;5.30;;;21.80;68.40;;;;;;214710;1292;24055;-60
2022/10/08 17:23:23;;;;;;;9.40;5.50;;;21.70;68.00;;;;;;215119;1281;22478;-58
2022/10/08 17:28:31;;;;;;;8.20;5.20;;;21.70;67.50;;;;;;215077;1300;22600;-61
2022/10/08 17:33:37;;;;;;;6.60;4.90;;;21.70;68.00;;;;;;214718;1286;22474;-61
2022/10/08 17:38:45;;;;;;;6.40;4.80;;;21.70;67.90;;;;;;214981;1275;25197;-60
2022/10/08 17:44:06;;;;;;;9.10;5.10;;;21.70;68.00;;;;;;214798;1289;22590;-60
2022/10/08 17:49:27;;;;;;;9.60;5.40;;;21.70;67.80;;;;;;215042;1298;24233;-58
2022/10/08 17:54:45;;;;;;;6.60;4.70;;;21.60;67.70;;;;;;215046;1300;22952;-60
2022/10/08 18:00:17;;;;;;;7.40;4.90;;;21.60;67.60;;;;;;214965;1288;25374;-62
2022/10/08 18:06:06;;;;;;;6.40;4.20;;;21.60;67.60;;;;;;214691;1279;342316;-62
2022/10/08 18:11:32;;;;;;;8.80;5.10;;;21.60;67.50;;;;;;215170;1283;22470;-63
2022/10/08 18:17:08;;;;;;;8.50;4.70;;;21.60;67.40;;;;;;215018;1290;24318;-59
2022/10/08 18:22:20;;;;;;;7.80;5.20;;;21.60;67.50;;;;;;214987;1274;22840;-60
2022/10/08 18:27:30;;;;;;;7.00;4.40;;;21.50;67.30;;;;;;215074;1285;22480;-63
2022/10/08 18:32:57;;;;;;;10.70;5.10;;;21.50;67.10;;;;;;215007;1300;25202;-59
2022/10/08 18:38:16;;;;;;;8.00;4.50;;;21.50;67.20;;;;;;214755;1300;22491;-60
2022/10/08 18:43:48;;;;;;;13.00;5.20;;;21.50;67.00;;;;;;214976;1287;24335;-61
2022/10/08 18:49:29;;;;;;;10.80;4.90;;;21.50;66.60;;;;;;214936;1286;22463;-63
2022/10/08 18:54:55;;;;;;;7.10;4.30;;;21.60;66.50;;;;;;214781;1275;24242;-61
2022/10/08 19:00:43;;;;;;;11.50;4.90;;;21.60;66.40;;;;;;214920;1300;25435;-65
2022/10/08 19:06:31;;;;;;;7.70;4.70;;;21.60;66.60;;;;;;215089;1300;25367;-63
2022/10/08 19:11:59;;;;;;;11.20;4.80;;;21.60;66.50;;;;;;215142;1281;22460;-60
2022/10/08 19:17:21;;;;;;;13.40;4.90;;;21.60;66.70;;;;;;215041;1288;22488;-61
2022/10/08 19:22:51;;;;;;;;;;;;;;;;;;;;;
2022/10/08 19:41:20;;;;;;;23.60;5.50;;;21.70;68.50;;;;;;214228;1294;25481;-59
2022/10/08 19:47:02;;;;;;;15.70;5.30;;;21.70;71.40;;;;;;214326;1289;25376;-59
2022/10/08 19:52:23;;;;;;;28.80;6.10;;;21.70;73.50;;;;;;214467;1285;22722;-59
2022/10/08 19:57:44;;;;;;;31.10;6.70;;;21.80;73.10;;;;;;214161;1303;24012;-60
2022/10/08 20:03:04;;;;;;;;;;;21.70;72.80;;;;;;214270;1303;22460;-58
2022/10/08 20:08:10;;;;;;;22.30;5.60;;;21.70;71.90;;;;;;214296;1284;25637;-59
2022/10/08 20:13:17;;;;;;;17.70;4.60;;;21.70;72.10;;;;;;214374;1284;22588;-59
2022/10/08 20:18:36;;;;;;;17.40;5.20;;;21.70;72.00;;;;;;214786;1285;22732;-60
2022/10/08 20:23:55;;;;;;;14.60;5.50;;;21.70;72.30;;;;;;215042;1282;22504;-59
2022/10/08 20:29:14;;;;;;;17.50;5.90;;;21.60;72.30;;;;;;215218;1286;22444;-59
2022/10/08 20:34:29;;;;;;;14.50;4.90;;;21.70;71.90;;;;;;214745;1300;22480;-59
2022/10/08 20:39:36;;;;;;;16.70;4.70;;;21.60;71.80;;;;;;215015;1282;24754;-57
2022/10/08 20:44:40;;;;;;;17.60;5.20;;;21.60;71.70;;;;;;215015;1281;22707;-61
2022/10/08 20:49:47;;;;;;;14.60;4.70;;;21.70;72.10;;;;;;214774;1295;22481;-59
2022/10/08 20:54:51;;;;;;;13.20;5.20;;;21.60;71.00;;;;;;214934;1288;23225;-56
2022/10/08 20:59:55;;;;;;;12.80;4.60;;;21.60;71.90;;;;;;214849;1292;22550;-58
2022/10/08 21:05:07;;;;;;;16.30;4.80;;;21.60;72.10;;;;;;214914;1285;24265;-57
2022/10/08 21:10:10;;;;;;;21.10;6.30;;;21.60;72.30;;;;;;214868;1292;23892;-56
2022/10/08 21:15:13;;;;;;;15.00;5.50;;;21.60;72.20;;;;;;214758;1281;22699;-53
2022/10/08 21:20:17;;;;;;;13.70;4.70;;;21.60;72.20;;;;;;215156;1297;23890;-56
2022/10/08 21:25:20;;;;;;;10.00;4.70;;;21.60;72.20;;;;;;214746;1300;22522;-58
2022/10/08 21:30:24;;;;;;;14.30;5.60;;;21.60;72.60;;;;;;214817;1299;25290;-58
2022/10/08 21:35:34;;;;;;;16.50;6.80;;;21.50;72.30;;;;;;214586;1280;24376;-58
2022/10/08 21:40:38;;;;;;;14.90;5.70;;;21.50;72.40;;;;;;214808;1299;25597;-57
2022/10/08 21:45:41;;;;;;;21.30;5.70;;;21.50;72.30;;;;;;214727;1286;24273;-57
2022/10/08 21:50:54;;;;;;;18.00;5.00;;;21.60;72.30;;;;;;214695;1281;23535;-58
2022/10/08 21:56:03;;;;;;;17.30;5.90;;;21.50;72.20;;;;;;214802;1278;23913;-58
2022/10/08 22:01:24;;;;;;;12.80;4.80;;;21.50;72.20;;;;;;214860;1278;25265;-58
2022/10/08 22:06:30;;;;;;;17.40;5.40;;;21.60;72.40;;;;;;214389;1297;22467;-58
2022/10/08 22:11:34;;;;;;;12.60;5.00;;;21.50;71.90;;;;;;214567;1283;23826;-60
2022/10/08 22:16:40;;;;;;;20.10;6.30;;;21.50;72.40;;;;;;214344;1295;22574;-60
2022/10/08 22:22:03;;;;;;;9.10;4.70;;;21.50;72.40;;;;;;214669;1303;22472;-58
2022/10/08 22:27:24;;;;;;;17.60;5.10;;;21.50;72.30;;;;;;214556;1288;22840;-56
2022/10/08 22:32:44;;;;;;;17.80;5.80;;;21.40;72.30;;;;;;214698;1301;23883;-57
2022/10/08 22:37:50;;;;;;;20.60;5.80;;;21.40;72.60;;;;;;214614;1295;25317;-57
2022/10/08 22:42:54;;;;;;;16.40;6.00;;;21.50;74.60;;;;;;214824;1301;22491;-62
2022/10/08 22:47:57;;;;;;;21.20;5.40;;;21.50;74.40;;;;;;214571;1295;25416;-58
2022/10/08 22:53:01;;;;;;;18.10;6.20;;;21.50;74.00;;;;;;214624;1275;22466;-57
2022/10/08 22:58:04;;;;;;;16.20;5.10;;;21.50;73.90;;;;;;214671;1283;22470;-59
2022/10/08 23:03:07;;;;;;;13.20;4.80;;;21.40;73.20;;;;;;214684;1300;22495;-58
2022/10/08 23:08:11;;;;;;;12.00;5.60;;;21.40;73.10;;;;;;214960;1284;24231;-59
2022/10/08 23:13:14;;;;;;;17.80;6.70;;;21.40;73.00;;;;;;215004;1274;22468;-57
2022/10/08 23:18:19;;;;;;;13.60;4.80;;;21.30;73.30;;;;;;214958;1294;25369;-57
2022/10/08 23:23:22;;;;;;;16.30;5.10;;;21.30;72.80;;;;;;214892;1299;22461;-56
2022/10/08 23:28:31;;;;;;;16.90;5.70;;;21.30;72.70;;;;;;215058;1285;22469;-58
2022/10/08 23:33:40;;;;;;;15.30;4.90;;;21.30;73.10;;;;;;214802;1281;23946;-58
2022/10/08 23:38:44;;;;;;;15.90;5.00;;;21.30;72.60;;;;;;215032;1295;22707;-58
2022/10/08 23:43:49;;;;;;;14.10;5.20;;;21.30;72.50;;;;;;215058;1288;22522;-58
2022/10/08 23:48:53;;;;;;;13.70;4.90;;;21.30;72.30;;;;;;215056;1296;24423;-60
2022/10/08 23:53:57;;;;;;;18.50;5.00;;;21.30;72.30;;;;;;215052;1282;24232;-59
2022/10/08 23:59:00;;;;;;;13.70;4.90;;;21.20;72.20;;;;;;215130;1284;22500;-58
